Aviation Digital Data Service (ADDS)

Output produced by METARs form (0950 UTC 27 May 2017)
found at http://www.aviationweather.gov/adds/metars/
 
KAOO 270853Z AUTO 00000KT 10SM SCT040 BKN055 12/11 A2991 RMK AO2 SLP127 T01220106 58007 $
KAOO 270753Z AUTO 21003KT 10SM SCT038 SCT047 12/11 A2994 RMK AO2 SLP137 T01220106 $
KAOO 270653Z AUTO 22004KT 10SM OVC042 13/11 A2994 RMK AO2 SLP135 T01280111 $
KAOO 270553Z AUTO 21004KT 10SM FEW044 13/11 A2993 RMK AO2 SLP134 T01280106 10178 20122 56001 $
KAOO 270453Z AUTO 21003KT 10SM BKN040 OVC050 13/11 A2994 RMK AO2 SLP134 T01280111 401830122 $
KAOO 270353Z AUTO 16003KT 10SM CLR 13/11 A2993 RMK AO2 SLP134 T01280106
KAOO 270253Z AUTO 33003KT 10SM BKN045 14/11 A2994 RMK AO2 SLP135 T01440106 51013
KAOO 270153Z AUTO 00000KT 10SM CLR 15/11 A2993 RMK AO2 SLP130 T01500106
KAOO 270053Z AUTO 31008KT 10SM FEW050 17/11 A2991 RMK AO2 SLP124 T01670111
KAOO 262353Z AUTO 30010KT 10SM OVC055 18/11 A2990 RMK AO2 SLP119 T01780111 10178 20161 51020
KAOO 262253Z AUTO 30009KT 10SM FEW033 OVC050 18/12 A2988 RMK AO2 SLP113 T01780117
KAOO 262153Z AUTO 29008KT 10SM SCT032 OVC050 18/12 A2986 RMK AO2 SLP108 T01780117
KAOO 262053Z AUTO 29011G18KT 10SM FEW029 SCT036 OVC046 17/12 A2984 RMK AO2 SLP100 T01720117 51009
KAOO 262013Z AUTO 28014G19KT 10SM SCT026 OVC035 17/12 A2983 RMK AO2 T01720117
KAOO 261953Z AUTO 29011KT 10SM BKN026 OVC039 17/12 A2983 RMK AO2 SLP097 T01720122
KAOO 261853Z AUTO 27009KT 10SM BKN020 OVC025 17/13 A2982 RMK AO2 SLP094 T01670128
KAOO 261817Z AUTO 29013KT 10SM BKN020 OVC032 17/13 A2981 RMK AO2 T01670133
KAOO 261753Z AUTO 28013KT 10SM SCT023 OVC030 17/13 A2981 RMK AO2 RAB22E39 SLP091 P0000 60002 T01670128 10183 20150 53008
KAOO 261701Z AUTO 27011KT 10SM SCT025 BKN029 OVC038 18/13 A2979 RMK AO2 T01830128
KAOO 261653Z AUTO 30014KT 10SM SCT025 OVC038 18/13 A2980 RMK AO2 SLP085 T01780128
KAOO 261649Z AUTO 29013KT 10SM FEW022 SCT030 OVC038 18/13 A2979 RMK AO2
KAOO 261553Z AUTO 30010KT 10SM BKN026 OVC031 17/13 A2978 RMK AO2 RAE22 SLP082 P0001 T01670133
KAOO 261453Z AUTO 30006KT 3SM RA BR BKN017 OVC022 15/13 A2977 RMK AO2 RAB11 SLP079 P0001 60001 T01500133 51014
KAOO 261451Z AUTO 30007KT 2 1/2SM RA BR BKN017 OVC022 15/13 A2977 RMK AO2 VIS 2V5 RAB11 P0001
KAOO 261353Z AUTO 28011G17KT 10SM BKN022 OVC029 17/12 A2975 RMK AO2 SLP070 T01670122
KAOO 261253Z AUTO 30012G18KT 10SM BKN020 OVC027 16/12 A2973 RMK AO2 RAE1157 SLP063 P0000 T01610122
KAOO 261153Z AUTO 29005KT 10SM -RA BKN019 BKN024 OVC032 16/13 A2971 RMK AO2 RAB39 SLP056 P0000 60000 70023 T01560133 10156 20144 53019
KAOO 261053Z AUTO 22007KT 6SM BR BKN017 OVC021 14/13 A2968 RMK AO2 SLP048 T01440133
KAOO 260953Z AUTO 26006KT 10SM BKN019 OVC028 14/13 A2966 RMK AO2 SLP041 T01440128
KAOO 260909Z AUTO 25003KT 10SM BKN021 BKN029 OVC060 14/13 A2965 RMK AO2 T01440128
KAOO 260853Z AUTO 29005KT 10SM SCT025 BKN030 OVC090 14/12 A2965 RMK AO2 SLP035 60000 T01440122 53017
KAOO 260801Z AUTO 26005KT 10SM SCT020 OVC038 14/13 A2962 RMK AO2 T01440128
KAOO 260753Z AUTO 00000KT 10SM BKN019 BKN038 OVC049 14/13 A2962 RMK AO2 SLP024 T01440128
KAOO 260709Z AUTO 26005KT 10SM BKN020 BKN025 OVC047 14/13 A2960 RMK AO2 T01440128
KAOO 260653Z AUTO 00000KT 10SM FEW020 SCT032 OVC047 14/13 A2960 RMK AO2 RAB17E35 SLP018 P0000 T01440133
KAOO 260645Z AUTO 24003KT 10SM SCT020 BKN045 OVC055 14/13 A2960 RMK AO2 RAB17E35 P0000 T01440133
KAOO 260553Z AUTO 26004KT 10SM BKN022 OVC026 14/13 A2959 RMK AO2 SLP016 60015 T01440128 10156 20133 51012
KAOO 260453Z AUTO 25005KT 10SM OVC022 14/12 A2959 RMK AO2 SLP017 T01440122 401890122
KAOO 260435Z AUTO 23004KT 10SM BKN020 BKN027 OVC036 14/13 A2959 RMK AO2 T01440128
KAOO 260417Z AUTO 26003KT 10SM SCT022 OVC035 14/12 A2959 RMK AO2 T01440122
KAOO 260353Z AUTO 00000KT 10SM OVC022 14/13 A2958 RMK AO2 SLP015 T01390128
KAOO 260326Z AUTO 23006KT 10SM BKN022 OVC090 14/13 A2957 RMK AO2 T01440128
KAOO 260317Z AUTO 23005KT 10SM SCT022 OVC090 14/13 A2957 RMK AO2 T01440128
KAOO 260310Z AUTO 23007KT 10SM BKN022 OVC090 14/13 A2957 RMK AO2 T01440128
KAOO 260253Z AUTO 24004KT 10SM SCT075 BKN090 14/13 A2956 RMK AO2 RAE33 SLP006 P0009 60015 T01390128 51015
KAOO 260153Z AUTO 34004KT 3SM +RA BR FEW031 OVC060 14/13 A2955 RMK AO2 RAB28 TSB17E48 SLP003 P0006 T01390133
KAOO 260151Z AUTO 33005KT 4SM +RA BR FEW008 OVC060 14/13 A2955 RMK AO2 RAB28 TSB17E48 P0006
KAOO 260123Z AUTO 27011KT 10SM TS FEW012 SCT042 BKN055 14/14 A2954 RMK AO2 LTG DSNT W AND NW TSB17 T01440139
KAOO 260053Z AUTO 00000KT 10SM VCTS SCT050 BKN085 14/13 A2952 RMK AO2 LTG DSNT W AND NW SLP994 T01390133
KAOO 252353Z AUTO 10004KT 10SM FEW006 SCT070 OVC090 15/14 A2951 RMK AO2 LTG DSNT NW SLP991 60003 T01500144 10189 20150 51009
KAOO 252311Z AUTO 11007KT 10SM SCT009 OVC095 16/14 A2951 RMK AO2 LTG DSNT NE AND E T01560144
KAOO 252304Z AUTO 12005KT 10SM BKN009 OVC090 16/14 A2951 RMK AO2 LTG DSNT E T01560144
KAOO 252253Z AUTO 10005KT 10SM SCT009 OVC080 16/14 A2951 RMK AO2 LTG DSNT NE AND SE RAE2158 SLP988 P0000 T01610144
KAOO 252203Z AUTO 00000KT 10SM FEW008 OVC075 16/14 A2950 RMK AO2 LTG DSNT E RAE2158 P0000 T01610144
KAOO 252153Z AUTO 00000KT 10SM -RA SCT010 OVC075 16/14 A2950 RMK AO2 LTG DSNT E AND SE SLP985 P0002 T01610144